sensor_id;sensor_type;location;lat;lon;timestamp;pressure;altitude;pressure_sealevel;temperature;humidity
70559;BME280;58108;48.094;11.838;2024-03-29T00:00:34;94132.88;;;2.07;100.00
70559;BME280;58108;48.094;11.838;2024-03-29T00:03:00;94127.50;;;2.10;100.00
70559;BME280;58108;48.094;11.838;2024-03-29T00:05:25;94117.97;;;1.85;100.00
70559;BME280;58108;48.094;11.838;2024-03-29T00:07:51;94129.31;;;1.82;100.00
70559;BME280;58108;48.094;11.838;2024-03-29T00:10:17;94126.44;;;1.87;100.00
70559;BME280;58108;48.094;11.838;2024-03-29T00:12:42;94115.91;;;1.90;100.00
70559;BME280;58108;48.094;11.838;2024-03-29T00:15:08;94115.22;;;2.01;100.00
70559;BME280;58108;48.094;11.838;2024-03-29T00:17:34;94110.13;;;1.99;100.00
70559;BME280;58108;48.094;11.838;2024-03-29T00:19:59;94117.78;;;2.01;100.00
70559;BME280;58108;48.094;11.838;2024-03-29T00:22:25;94122.25;;;1.99;100.00
70559;BME280;58108;48.094;11.838;2024-03-29T00:24:50;94116.00;;;2.01;100.00
70559;BME280;58108;48.094;11.838;2024-03-29T00:27:16;94112.94;;;1.96;100.00
70559;BME280;58108;48.094;11.838;2024-03-29T00:29:41;94107.25;;;1.91;100.00
70559;BME280;58108;48.094;11.838;2024-03-29T00:32:09;94108.28;;;1.88;100.00
70559;BME280;58108;48.094;11.838;2024-03-29T00:34:34;94104.53;;;1.80;100.00
70559;BME280;58108;48.094;11.838;2024-03-29T00:37:00;94089.38;;;1.75;100.00
70559;BME280;58108;48.094;11.838;2024-03-29T00:39:26;94083.09;;;1.92;100.00
70559;BME280;58108;48.094;11.838;2024-03-29T00:41:51;94081.75;;;1.99;100.00
70559;BME280;58108;48.094;11.838;2024-03-29T00:44:17;94087.94;;;2.10;100.00
70559;BME280;58108;48.094;11.838;2024-03-29T00:46:42;94082.47;;;2.01;100.00
70559;BME280;58108;48.094;11.838;2024-03-29T00:49:08;94083.41;;;1.87;100.00
70559;BME280;58108;48.094;11.838;2024-03-29T00:51:34;94077.22;;;1.90;100.00
70559;BME280;58108;48.094;11.838;2024-03-29T00:53:59;94072.75;;;1.92;100.00
70559;BME280;58108;48.094;11.838;2024-03-29T00:56:25;94071.53;;;1.85;100.00
70559;BME280;58108;48.094;11.838;2024-03-29T00:58:50;94073.91;;;1.88;100.00
70559;BME280;58108;48.094;11.838;2024-03-29T01:01:17;94075.34;;;1.92;100.00
70559;BME280;58108;48.094;11.838;2024-03-29T01:03:43;94077.50;;;1.85;100.00
70559;BME280;58108;48.094;11.838;2024-03-29T01:06:08;94058.63;;;1.85;100.00
70559;BME280;58108;48.094;11.838;2024-03-29T01:08:34;94069.16;;;1.82;100.00
70559;BME280;58108;48.094;11.838;2024-03-29T01:10:59;94063.38;;;1.78;100.00
70559;BME280;58108;48.094;11.838;2024-03-29T01:13:25;94070.81;;;1.83;100.00
70559;BME280;58108;48.094;11.838;2024-03-29T01:15:51;94054.78;;;1.77;100.00
70559;BME280;58108;48.094;11.838;2024-03-29T01:18:17;94049.63;;;1.77;100.00
70559;BME280;58108;48.094;11.838;2024-03-29T01:20:43;94037.03;;;1.86;100.00
70559;BME280;58108;48.094;11.838;2024-03-29T01:23:08;94030.03;;;1.88;100.00
70559;BME280;58108;48.094;11.838;2024-03-29T01:25:34;94026.22;;;1.81;100.00
70559;BME280;58108;48.094;11.838;2024-03-29T01:27:59;94019.50;;;1.78;100.00
70559;BME280;58108;48.094;11.838;2024-03-29T01:30:25;94003.59;;;1.84;100.00
70559;BME280;58108;48.094;11.838;2024-03-29T01:32:52;94008.78;;;1.84;100.00
70559;BME280;58108;48.094;11.838;2024-03-29T01:35:17;94002.88;;;1.69;100.00
70559;BME280;58108;48.094;11.838;2024-03-29T01:37:43;93992.03;;;1.64;100.00
70559;BME280;58108;48.094;11.838;2024-03-29T01:40:09;93982.31;;;1.68;100.00
70559;BME280;58108;48.094;11.838;2024-03-29T01:42:35;93973.78;;;1.67;100.00
70559;BME280;58108;48.094;11.838;2024-03-29T01:45:01;93958.94;;;1.58;100.00
70559;BME280;58108;48.094;11.838;2024-03-29T01:47:28;93949.66;;;1.55;100.00
70559;BME280;58108;48.094;11.838;2024-03-29T01:49:54;93953.47;;;1.62;100.00
70559;BME280;58108;48.094;11.838;2024-03-29T01:52:20;93960.25;;;1.63;100.00
70559;BME280;58108;48.094;11.838;2024-03-29T01:54:46;93955.31;;;1.73;100.00
70559;BME280;58108;48.094;11.838;2024-03-29T01:57:14;93967.16;;;1.63;100.00
70559;BME280;58108;48.094;11.838;2024-03-29T01:59:42;93981.31;;;1.57;100.00
70559;BME280;58108;48.094;11.838;2024-03-29T02:02:11;93977.91;;;1.57;100.00
70559;BME280;58108;48.094;11.838;2024-03-29T02:04:37;93978.03;;;1.55;100.00
70559;BME280;58108;48.094;11.838;2024-03-29T02:07:03;93972.44;;;1.61;100.00
70559;BME280;58108;48.094;11.838;2024-03-29T02:09:29;93981.94;;;1.61;100.00
70559;BME280;58108;48.094;11.838;2024-03-29T02:11:55;93979.75;;;1.55;100.00
70559;BME280;58108;48.094;11.838;2024-03-29T02:14:21;93985.31;;;1.48;100.00
70559;BME280;58108;48.094;11.838;2024-03-29T02:16:46;93979.22;;;1.49;100.00
70559;BME280;58108;48.094;11.838;2024-03-29T02:19:12;93979.44;;;1.46;100.00
70559;BME280;58108;48.094;11.838;2024-03-29T02:21:43;93971.63;;;1.48;100.00
70559;BME280;58108;48.094;11.838;2024-03-29T02:24:12;93961.59;;;1.56;100.00
70559;BME280;58108;48.094;11.838;2024-03-29T02:26:40;93963.66;;;1.51;100.00
70559;BME280;58108;48.094;11.838;2024-03-29T02:29:08;93965.63;;;1.60;100.00
70559;BME280;58108;48.094;11.838;2024-03-29T02:31:35;93966.75;;;1.69;100.00
70559;BME280;58108;48.094;11.838;2024-03-29T02:34:00;93962.81;;;1.76;100.00
70559;BME280;58108;48.094;11.838;2024-03-29T02:36:26;93956.75;;;1.64;100.00
70559;BME280;58108;48.094;11.838;2024-03-29T02:38:51;93962.53;;;1.55;100.00
70559;BME280;58108;48.094;11.838;2024-03-29T02:41:18;93956.34;;;1.71;100.00
70559;BME280;58108;48.094;11.838;2024-03-29T02:43:43;93967.75;;;1.80;100.00
70559;BME280;58108;48.094;11.838;2024-03-29T02:46:09;93968.91;;;1.88;100.00
70559;BME280;58108;48.094;11.838;2024-03-29T02:48:35;93957.44;;;1.93;100.00
70559;BME280;58108;48.094;11.838;2024-03-29T02:51:01;93946.78;;;1.97;100.00
70559;BME280;58108;48.094;11.838;2024-03-29T02:53:26;93949.38;;;1.97;100.00
70559;BME280;58108;48.094;11.838;2024-03-29T02:55:52;93954.28;;;2.13;100.00
70559;BME280;58108;48.094;11.838;2024-03-29T02:58:18;93946.00;;;2.21;100.00
70559;BME280;58108;48.094;11.838;2024-03-29T03:00:43;93940.13;;;2.19;100.00
70559;BME280;58108;48.094;11.838;2024-03-29T03:03:09;93942.38;;;2.24;100.00
70559;BME280;58108;48.094;11.838;2024-03-29T03:05:34;93955.81;;;2.16;100.00
70559;BME280;58108;48.094;11.838;2024-03-29T03:08:00;93952.53;;;2.14;100.00
70559;BME280;58108;48.094;11.838;2024-03-29T03:11:04;93956.56;;;2.18;100.00
70559;BME280;58108;48.094;11.838;2024-03-29T03:13:29;93945.16;;;2.21;100.00
70559;BME280;58108;48.094;11.838;2024-03-29T03:15:55;93933.94;;;2.22;100.00
70559;BME280;58108;48.094;11.838;2024-03-29T03:18:21;93937.88;;;2.14;100.00
70559;BME280;58108;48.094;11.838;2024-03-29T03:20:53;93922.91;;;2.07;100.00
70559;BME280;58108;48.094;11.838;2024-03-29T03:23:20;93925.09;;;2.00;100.00
70559;BME280;58108;48.094;11.838;2024-03-29T03:25:58;93930.47;;;1.97;100.00
70559;BME280;58108;48.094;11.838;2024-03-29T03:28:25;93921.31;;;1.93;100.00
70559;BME280;58108;48.094;11.838;2024-03-29T03:30:51;93920.41;;;1.81;100.00
70559;BME280;58108;48.094;11.838;2024-03-29T03:33:17;93929.19;;;1.78;100.00
70559;BME280;58108;48.094;11.838;2024-03-29T03:35:44;93929.69;;;1.70;100.00
70559;BME280;58108;48.094;11.838;2024-03-29T03:38:10;93931.44;;;1.83;100.00
70559;BME280;58108;48.094;11.838;2024-03-29T03:40:37;93927.34;;;1.67;100.00
70559;BME280;58108;48.094;11.838;2024-03-29T03:43:03;93926.41;;;1.68;100.00
70559;BME280;58108;48.094;11.838;2024-03-29T03:45:33;93916.47;;;1.75;100.00
70559;BME280;58108;48.094;11.838;2024-03-29T03:47:59;93916.47;;;1.88;100.00
70559;BME280;58108;48.094;11.838;2024-03-29T03:50:25;93922.06;;;1.82;100.00
70559;BME280;58108;48.094;11.838;2024-03-29T03:52:50;93909.63;;;1.87;100.00
70559;BME280;58108;48.094;11.838;2024-03-29T03:55:16;93901.50;;;1.80;100.00
70559;BME280;58108;48.094;11.838;2024-03-29T03:57:41;93905.81;;;1.80;100.00
70559;BME280;58108;48.094;11.838;2024-03-29T04:00:08;93917.69;;;1.82;100.00
70559;BME280;58108;48.094;11.838;2024-03-29T04:02:40;93920.50;;;1.79;100.00
70559;BME280;58108;48.094;11.838;2024-03-29T04:05:06;93911.06;;;1.91;100.00
70559;BME280;58108;48.094;11.838;2024-03-29T04:07:32;93904.22;;;2.03;100.00
70559;BME280;58108;48.094;11.838;2024-03-29T04:09:58;93893.19;;;2.01;100.00
70559;BME280;58108;48.094;11.838;2024-03-29T04:12:23;93899.66;;;2.07;100.00
70559;BME280;58108;48.094;11.838;2024-03-29T04:14:49;93901.56;;;2.29;100.00
70559;BME280;58108;48.094;11.838;2024-03-29T04:17:15;93899.94;;;2.15;100.00
70559;BME280;58108;48.094;11.838;2024-03-29T04:19:40;93910.38;;;2.13;100.00
70559;BME280;58108;48.094;11.838;2024-03-29T04:22:06;93907.09;;;2.11;100.00
70559;BME280;58108;48.094;11.838;2024-03-29T04:24:32;93924.28;;;1.99;100.00
70559;BME280;58108;48.094;11.838;2024-03-29T04:26:57;93916.94;;;1.93;100.00
70559;BME280;58108;48.094;11.838;2024-03-29T04:29:23;93909.75;;;1.85;100.00
70559;BME280;58108;48.094;11.838;2024-03-29T04:31:48;93899.16;;;1.77;100.00
70559;BME280;58108;48.094;11.838;2024-03-29T04:34:14;93898.00;;;1.81;100.00
70559;BME280;58108;48.094;11.838;2024-03-29T04:36:40;93885.72;;;1.72;100.00
70559;BME280;58108;48.094;11.838;2024-03-29T04:39:06;93875.75;;;1.67;100.00
70559;BME280;58108;48.094;11.838;2024-03-29T04:41:32;93858.81;;;1.63;100.00
70559;BME280;58108;48.094;11.838;2024-03-29T04:44:01;93863.53;;;1.69;100.00
70559;BME280;58108;48.094;11.838;2024-03-29T04:46:30;93850.94;;;1.77;100.00
70559;BME280;58108;48.094;11.838;2024-03-29T04:48:56;93847.25;;;1.69;100.00
70559;BME280;58108;48.094;11.838;2024-03-29T04:51:21;93844.69;;;1.69;100.00
70559;BME280;58108;48.094;11.838;2024-03-29T04:53:47;93846.59;;;1.78;100.00
70559;BME280;58108;48.094;11.838;2024-03-29T04:56:13;93843.50;;;1.73;100.00
70559;BME280;58108;48.094;11.838;2024-03-29T04:58:38;93847.22;;;1.82;100.00
70559;BME280;58108;48.094;11.838;2024-03-29T05:01:04;93859.78;;;1.86;100.00
70559;BME280;58108;48.094;11.838;2024-03-29T05:03:29;93855.78;;;2.07;100.00
70559;BME280;58108;48.094;11.838;2024-03-29T05:05:56;93869.38;;;2.22;100.00
70559;BME280;58108;48.094;11.838;2024-03-29T05:08:22;93879.28;;;2.39;100.00
70559;BME280;58108;48.094;11.838;2024-03-29T05:10:51;93870.66;;;2.52;100.00
70559;BME280;58108;48.094;11.838;2024-03-29T05:13:17;93866.34;;;2.64;100.00
70559;BME280;58108;48.094;11.838;2024-03-29T05:15:45;93865.56;;;2.75;100.00
70559;BME280;58108;48.094;11.838;2024-03-29T05:18:12;93868.59;;;2.80;100.00
70559;BME280;58108;48.094;11.838;2024-03-29T05:20:38;93868.84;;;2.88;100.00
70559;BME280;58108;48.094;11.838;2024-03-29T05:23:07;93864.63;;;2.87;100.00
70559;BME280;58108;48.094;11.838;2024-03-29T05:25:33;93872.56;;;3.08;100.00
70559;BME280;58108;48.094;11.838;2024-03-29T05:27:58;93872.44;;;3.10;100.00
70559;BME280;58108;48.094;11.838;2024-03-29T05:30:24;93885.94;;;3.13;100.00
70559;BME280;58108;48.094;11.838;2024-03-29T05:32:50;93887.50;;;3.16;100.00
70559;BME280;58108;48.094;11.838;2024-03-29T05:35:15;93889.13;;;3.17;100.00
70559;BME280;58108;48.094;11.838;2024-03-29T05:37:41;93878.19;;;3.13;100.00
70559;BME280;58108;48.094;11.838;2024-03-29T05:40:08;93876.78;;;3.21;100.00
70559;BME280;58108;48.094;11.838;2024-03-29T05:42:34;93865.41;;;3.23;100.00
70559;BME280;58108;48.094;11.838;2024-03-29T05:45:01;93868.81;;;3.24;100.00
70559;BME280;58108;48.094;11.838;2024-03-29T05:47:27;93857.28;;;3.17;100.00
70559;BME280;58108;48.094;11.838;2024-03-29T05:49:53;93841.66;;;3.30;100.00
70559;BME280;58108;48.094;11.838;2024-03-29T05:52:19;93831.06;;;3.21;100.00
70559;BME280;58108;48.094;11.838;2024-03-29T05:54:46;93828.13;;;3.26;100.00
70559;BME280;58108;48.094;11.838;2024-03-29T05:57:12;93822.50;;;3.32;100.00
70559;BME280;58108;48.094;11.838;2024-03-29T05:59:38;93812.38;;;3.40;100.00
70559;BME280;58108;48.094;11.838;2024-03-29T06:02:04;93819.41;;;3.50;100.00
70559;BME280;58108;48.094;11.838;2024-03-29T06:04:30;93827.41;;;3.58;100.00
70559;BME280;58108;48.094;11.838;2024-03-29T06:06:59;93827.97;;;3.62;100.00
70559;BME280;58108;48.094;11.838;2024-03-29T06:09:25;93834.09;;;3.61;100.00
70559;BME280;58108;48.094;11.838;2024-03-29T06:11:51;93837.63;;;3.60;100.00
70559;BME280;58108;48.094;11.838;2024-03-29T06:14:17;93841.19;;;3.59;100.00
70559;BME280;58108;48.094;11.838;2024-03-29T06:17:01;93828.00;;;3.50;100.00
70559;BME280;58108;48.094;11.838;2024-03-29T06:19:45;93828.81;;;3.51;100.00
70559;BME280;58108;48.094;11.838;2024-03-29T06:22:11;93832.13;;;3.53;99.91
70559;BME280;58108;48.094;11.838;2024-03-29T06:24:36;93835.06;;;3.48;100.00
70559;BME280;58108;48.094;11.838;2024-03-29T06:27:04;93834.00;;;3.62;100.00
70559;BME280;58108;48.094;11.838;2024-03-29T06:29:30;93843.25;;;3.76;99.30
70559;BME280;58108;48.094;11.838;2024-03-29T06:31:56;93855.94;;;3.91;99.50
70559;BME280;58108;48.094;11.838;2024-03-29T06:34:21;93867.56;;;4.08;97.56
70559;BME280;58108;48.094;11.838;2024-03-29T06:36:47;93861.28;;;4.22;97.09
70559;BME280;58108;48.094;11.838;2024-03-29T06:39:12;93858.66;;;4.33;97.05
70559;BME280;58108;48.094;11.838;2024-03-29T06:41:38;93866.91;;;4.38;95.75
70559;BME280;58108;48.094;11.838;2024-03-29T06:44:04;93861.56;;;4.40;95.67
70559;BME280;58108;48.094;11.838;2024-03-29T06:46:29;93867.09;;;4.47;96.16
70559;BME280;58108;48.094;11.838;2024-03-29T06:48:55;93871.81;;;4.42;97.10
70559;BME280;58108;48.094;11.838;2024-03-29T06:51:20;93867.69;;;4.50;96.98
70559;BME280;58108;48.094;11.838;2024-03-29T06:53:46;93866.63;;;4.53;96.83
70559;BME280;58108;48.094;11.838;2024-03-29T06:56:12;93859.59;;;4.65;95.84
70559;BME280;58108;48.094;11.838;2024-03-29T06:58:37;93858.00;;;4.74;94.67
70559;BME280;58108;48.094;11.838;2024-03-29T07:01:03;93847.31;;;4.88;94.71
70559;BME280;58108;48.094;11.838;2024-03-29T07:03:29;93838.78;;;4.98;94.94
70559;BME280;58108;48.094;11.838;2024-03-29T07:05:55;93849.78;;;5.11;94.16
70559;BME280;58108;48.094;11.838;2024-03-29T07:08:20;93858.19;;;5.25;95.70
70559;BME280;58108;48.094;11.838;2024-03-29T07:10:46;93856.28;;;5.27;95.29
70559;BME280;58108;48.094;11.838;2024-03-29T07:13:11;93860.97;;;5.33;93.72
70559;BME280;58108;48.094;11.838;2024-03-29T07:15:37;93857.34;;;5.45;93.82
70559;BME280;58108;48.094;11.838;2024-03-29T07:18:04;93846.44;;;5.52;93.27
70559;BME280;58108;48.094;11.838;2024-03-29T07:20:29;93851.00;;;5.69;93.35
70559;BME280;58108;48.094;11.838;2024-03-29T07:22:55;93841.75;;;5.86;93.13
70559;BME280;58108;48.094;11.838;2024-03-29T07:25:20;93837.00;;;6.01;92.09
70559;BME280;58108;48.094;11.838;2024-03-29T07:27:46;93836.09;;;6.12;89.18
70559;BME280;58108;48.094;11.838;2024-03-29T07:30:12;93827.09;;;6.26;90.61
70559;BME280;58108;48.094;11.838;2024-03-29T07:32:39;93828.34;;;6.42;90.07
70559;BME280;58108;48.094;11.838;2024-03-29T07:35:06;93833.78;;;6.49;88.03
70559;BME280;58108;48.094;11.838;2024-03-29T07:37:32;93841.59;;;6.49;87.86
70559;BME280;58108;48.094;11.838;2024-03-29T07:39:57;93851.19;;;6.48;87.08
70559;BME280;58108;48.094;11.838;2024-03-29T07:42:23;93849.13;;;6.62;87.95
70559;BME280;58108;48.094;11.838;2024-03-29T07:44:49;93853.34;;;6.73;88.50
70559;BME280;58108;48.094;11.838;2024-03-29T07:47:14;93858.44;;;6.94;87.90
70559;BME280;58108;48.094;11.838;2024-03-29T07:49:40;93851.28;;;7.16;87.06
70559;BME280;58108;48.094;11.838;2024-03-29T07:52:07;93855.97;;;7.40;86.64
70559;BME280;58108;48.094;11.838;2024-03-29T07:54:34;93865.25;;;7.62;85.30
70559;BME280;58108;48.094;11.838;2024-03-29T07:57:00;93879.84;;;7.83;84.37
70559;BME280;58108;48.094;11.838;2024-03-29T07:59:26;93874.03;;;7.89;82.82
70559;BME280;58108;48.094;11.838;2024-03-29T08:01:52;93873.53;;;8.04;83.56
70559;BME280;58108;48.094;11.838;2024-03-29T08:04:20;93880.06;;;8.18;81.66
70559;BME280;58108;48.094;11.838;2024-03-29T08:06:46;93888.38;;;8.31;79.92
70559;BME280;58108;48.094;11.838;2024-03-29T08:09:11;93879.41;;;8.34;77.00
70559;BME280;58108;48.094;11.838;2024-03-29T08:11:39;93885.53;;;8.43;80.52
70559;BME280;58108;48.094;11.838;2024-03-29T08:14:05;93880.16;;;8.54;76.63
70559;BME280;58108;48.094;11.838;2024-03-29T08:16:32;93879.25;;;8.82;78.55
70559;BME280;58108;48.094;11.838;2024-03-29T08:18:57;93887.59;;;9.03;75.81
70559;BME280;58108;48.094;11.838;2024-03-29T08:21:24;93882.69;;;9.27;76.56
70559;BME280;58108;48.094;11.838;2024-03-29T08:23:52;93882.81;;;9.43;74.54
70559;BME280;58108;48.094;11.838;2024-03-29T08:26:23;93877.13;;;9.48;74.88
70559;BME280;58108;48.094;11.838;2024-03-29T08:28:48;93876.72;;;9.61;75.28
70559;BME280;58108;48.094;11.838;2024-03-29T08:31:15;93867.00;;;9.80;73.37
70559;BME280;58108;48.094;11.838;2024-03-29T08:33:41;93864.03;;;10.18;73.51
70559;BME280;58108;48.094;11.838;2024-03-29T08:36:09;93867.34;;;10.36;70.58
70559;BME280;58108;48.094;11.838;2024-03-29T08:38:37;93858.59;;;10.46;71.16
70559;BME280;58108;48.094;11.838;2024-03-29T08:41:04;93848.66;;;10.83;72.11
70559;BME280;58108;48.094;11.838;2024-03-29T08:43:30;93851.47;;;10.89;70.07
70559;BME280;58108;48.094;11.838;2024-03-29T08:45:56;93854.56;;;10.93;71.26
70559;BME280;58108;48.094;11.838;2024-03-29T08:48:23;93860.09;;;11.06;67.91
70559;BME280;58108;48.094;11.838;2024-03-29T08:50:50;93854.38;;;11.28;68.68
70559;BME280;58108;48.094;11.838;2024-03-29T08:53:15;93852.66;;;11.68;65.39
70559;BME280;58108;48.094;11.838;2024-03-29T08:55:41;93845.38;;;11.95;66.69
70559;BME280;58108;48.094;11.838;2024-03-29T08:58:07;93849.38;;;12.23;66.27
70559;BME280;58108;48.094;11.838;2024-03-29T09:00:32;93855.91;;;12.58;63.20
70559;BME280;58108;48.094;11.838;2024-03-29T09:02:58;93851.78;;;12.33;64.61
70559;BME280;58108;48.094;11.838;2024-03-29T09:05:25;93850.66;;;12.58;64.80
70559;BME280;58108;48.094;11.838;2024-03-29T09:07:55;93846.56;;;13.03;60.07
70559;BME280;58108;48.094;11.838;2024-03-29T09:10:23;93852.25;;;13.30;60.28
70559;BME280;58108;48.094;11.838;2024-03-29T09:12:50;93848.75;;;13.37;59.96
70559;BME280;58108;48.094;11.838;2024-03-29T09:15:15;93849.06;;;13.58;60.07
70559;BME280;58108;48.094;11.838;2024-03-29T09:17:42;93854.69;;;13.70;57.81
70559;BME280;58108;48.094;11.838;2024-03-29T09:20:08;93860.53;;;13.42;56.62
70559;BME280;58108;48.094;11.838;2024-03-29T09:22:34;93850.84;;;13.42;58.01
70559;BME280;58108;48.094;11.838;2024-03-29T09:25:01;93842.72;;;13.52;59.08
70559;BME280;58108;48.094;11.838;2024-03-29T09:27:27;93838.00;;;13.62;58.58
70559;BME280;58108;48.094;11.838;2024-03-29T09:29:54;93845.19;;;13.69;57.19
70559;BME280;58108;48.094;11.838;2024-03-29T09:32:21;93852.25;;;13.83;56.68
70559;BME280;58108;48.094;11.838;2024-03-29T09:34:48;93849.06;;;14.03;57.41
70559;BME280;58108;48.094;11.838;2024-03-29T09:37:14;93850.50;;;14.20;58.44
70559;BME280;58108;48.094;11.838;2024-03-29T09:39:39;93841.41;;;14.75;56.51
70559;BME280;58108;48.094;11.838;2024-03-29T09:42:06;93850.59;;;14.64;57.15
70559;BME280;58108;48.094;11.838;2024-03-29T09:44:33;93849.69;;;14.94;54.81
70559;BME280;58108;48.094;11.838;2024-03-29T09:47:03;93831.00;;;15.39;54.98
70559;BME280;58108;48.094;11.838;2024-03-29T09:49:32;93835.31;;;15.47;55.84
70559;BME280;58108;48.094;11.838;2024-03-29T09:52:01;93849.19;;;15.55;52.32
70559;BME280;58108;48.094;11.838;2024-03-29T09:54:28;93836.47;;;15.37;51.91
70559;BME280;58108;48.094;11.838;2024-03-29T09:56:58;93832.94;;;15.87;50.35
70559;BME280;58108;48.094;11.838;2024-03-29T09:59:27;93824.13;;;16.08;50.21
70559;BME280;58108;48.094;11.838;2024-03-29T10:01:57;93828.56;;;16.01;49.36
70559;BME280;58108;48.094;11.838;2024-03-29T10:04:24;93837.59;;;15.85;47.35
70559;BME280;58108;48.094;11.838;2024-03-29T10:06:51;93825.59;;;15.82;48.87
70559;BME280;58108;48.094;11.838;2024-03-29T10:09:21;93825.09;;;15.65;52.02
70559;BME280;58108;48.094;11.838;2024-03-29T10:11:48;93821.75;;;15.85;50.19
70559;BME280;58108;48.094;11.838;2024-03-29T10:14:14;93818.91;;;15.51;48.38
70559;BME280;58108;48.094;11.838;2024-03-29T10:16:39;93815.00;;;15.76;46.27
70559;BME280;58108;48.094;11.838;2024-03-29T10:19:11;93820.13;;;15.84;46.46
70559;BME280;58108;48.094;11.838;2024-03-29T10:21:37;93827.97;;;15.70;48.85
70559;BME280;58108;48.094;11.838;2024-03-29T10:24:15;93821.56;;;15.86;48.60
70559;BME280;58108;48.094;11.838;2024-03-29T10:26:43;93828.41;;;16.09;49.14
70559;BME280;58108;48.094;11.838;2024-03-29T10:29:09;93817.31;;;16.34;48.17
70559;BME280;58108;48.094;11.838;2024-03-29T10:31:35;93817.59;;;16.60;48.14
70559;BME280;58108;48.094;11.838;2024-03-29T10:34:05;93816.22;;;16.91;46.43
70559;BME280;58108;48.094;11.838;2024-03-29T10:36:32;93813.19;;;16.87;46.01
70559;BME280;58108;48.094;11.838;2024-03-29T10:39:09;93805.25;;;16.80;45.00
70559;BME280;58108;48.094;11.838;2024-03-29T10:41:40;93803.66;;;17.00;46.52
70559;BME280;58108;48.094;11.838;2024-03-29T10:44:08;93810.41;;;17.29;44.71
70559;BME280;58108;48.094;11.838;2024-03-29T10:46:36;93807.31;;;17.53;46.42
70559;BME280;58108;48.094;11.838;2024-03-29T10:49:03;93801.78;;;17.74;45.43
70559;BME280;58108;48.094;11.838;2024-03-29T10:51:29;93806.06;;;17.75;45.10
70559;BME280;58108;48.094;11.838;2024-03-29T10:53:57;93799.91;;;17.95;48.23
70559;BME280;58108;48.094;11.838;2024-03-29T10:56:24;93786.38;;;18.24;45.55
70559;BME280;58108;48.094;11.838;2024-03-29T10:58:56;93793.13;;;18.20;43.89
70559;BME280;58108;48.094;11.838;2024-03-29T11:01:23;93801.88;;;18.20;48.05
70559;BME280;58108;48.094;11.838;2024-03-29T11:03:54;93788.78;;;18.39;45.28
70559;BME280;58108;48.094;11.838;2024-03-29T11:06:26;93790.56;;;17.86;42.82
70559;BME280;58108;48.094;11.838;2024-03-29T11:08:56;93785.22;;;17.99;42.79
70559;BME280;58108;48.094;11.838;2024-03-29T11:11:26;93782.59;;;18.52;42.33
70559;BME280;58108;48.094;11.838;2024-03-29T11:14:05;93770.88;;;18.66;44.52
70559;BME280;58108;48.094;11.838;2024-03-29T11:16:33;93762.53;;;18.63;42.54
70559;BME280;58108;48.094;11.838;2024-03-29T11:18:59;93762.25;;;19.10;41.98
70559;BME280;58108;48.094;11.838;2024-03-29T11:21:30;93752.09;;;19.25;39.62
70559;BME280;58108;48.094;11.838;2024-03-29T11:23:57;93757.34;;;19.32;40.98
70559;BME280;58108;48.094;11.838;2024-03-29T11:26:27;93764.13;;;18.96;40.43
70559;BME280;58108;48.094;11.838;2024-03-29T11:28:53;93759.81;;;19.52;39.95
70559;BME280;58108;48.094;11.838;2024-03-29T11:31:23;93754.00;;;19.44;36.58
70559;BME280;58108;48.094;11.838;2024-03-29T11:33:49;93758.53;;;19.36;38.78
70559;BME280;58108;48.094;11.838;2024-03-29T11:36:17;93764.00;;;19.42;36.37
70559;BME280;58108;48.094;11.838;2024-03-29T11:38:45;93751.63;;;19.54;37.30
70559;BME280;58108;48.094;11.838;2024-03-29T11:41:21;93760.63;;;19.72;36.30
70559;BME280;58108;48.094;11.838;2024-03-29T11:43:49;93761.25;;;19.74;36.69
70559;BME280;58108;48.094;11.838;2024-03-29T11:46:17;93760.19;;;20.31;36.78
70559;BME280;58108;48.094;11.838;2024-03-29T11:48:43;93747.13;;;20.60;34.53
70559;BME280;58108;48.094;11.838;2024-03-29T11:51:14;93752.72;;;20.40;33.67
70559;BME280;58108;48.094;11.838;2024-03-29T11:53:41;93754.88;;;20.31;36.58
70559;BME280;58108;48.094;11.838;2024-03-29T11:56:07;93756.69;;;21.22;36.42
70559;BME280;58108;48.094;11.838;2024-03-29T11:58:33;93749.69;;;22.75;33.92
70559;BME280;58108;48.094;11.838;2024-03-29T12:01:00;93743.16;;;21.71;30.74
70559;BME280;58108;48.094;11.838;2024-03-29T12:03:28;93745.19;;;21.34;31.82
70559;BME280;58108;48.094;11.838;2024-03-29T12:05:56;93742.63;;;23.15;34.29
70559;BME280;58108;48.094;11.838;2024-03-29T12:08:33;93730.00;;;24.78;32.56
70559;BME280;58108;48.094;11.838;2024-03-29T12:10:59;93744.28;;;25.98;31.23
70559;BME280;58108;48.094;11.838;2024-03-29T12:13:25;93738.84;;;26.36;29.21
70559;BME280;58108;48.094;11.838;2024-03-29T12:15:51;93735.25;;;27.25;28.06
70559;BME280;58108;48.094;11.838;2024-03-29T12:18:19;93722.25;;;26.54;30.84
70559;BME280;58108;48.094;11.838;2024-03-29T12:20:45;93727.34;;;25.44;31.11
70559;BME280;58108;48.094;11.838;2024-03-29T12:23:19;93723.13;;;24.60;28.54
70559;BME280;58108;48.094;11.838;2024-03-29T12:25:45;93720.94;;;23.85;31.20
70559;BME280;58108;48.094;11.838;2024-03-29T12:28:13;93712.56;;;24.21;30.92
70559;BME280;58108;48.094;11.838;2024-03-29T12:30:45;93714.38;;;25.30;29.15
70559;BME280;58108;48.094;11.838;2024-03-29T12:33:14;93714.88;;;26.18;27.57
70559;BME280;58108;48.094;11.838;2024-03-29T12:35:44;93705.91;;;26.87;26.72
70559;BME280;58108;48.094;11.838;2024-03-29T12:38:14;93704.03;;;26.67;27.09
70559;BME280;58108;48.094;11.838;2024-03-29T12:40:41;93703.81;;;26.99;26.86
70559;BME280;58108;48.094;11.838;2024-03-29T12:43:09;93701.56;;;26.39;27.05
70559;BME280;58108;48.094;11.838;2024-03-29T12:45:36;93705.34;;;25.85;27.80
70559;BME280;58108;48.094;11.838;2024-03-29T12:48:02;93693.81;;;26.69;26.90
70559;BME280;58108;48.094;11.838;2024-03-29T12:50:30;93696.25;;;26.70;25.61